Celik 1 — 9HKY9 — position and weather

sailwx.info

Track history (hours):
 
Tides and Currents Weather Stations Pressure Air Temp Water Temp Dewpoint Dewpoint Depression Visibility Wind Speed Wind Dir Waves Ship Positions

Celik 1

Last reported at 2016-May-21 12:10 UTC. Time now 2016-May-25 14:51 UTC.
Position N 40°57' E 028°58'.

Length 121 m; draft 6.3 m.

Type: Cargo ship. MMSI: 249114000.

Date/timePositionNaut miles runAvg speedWind from/ knotsBaromVisibWave heightAir tempDewpointWater temp
2016-May-21 12:10N 40°57' E 028°58'3 1.6
2016-May-21 10:06N 40°57' E 028°54'0 0.0
2016-May-21 03:29N 40°57' E 028°54'0 0.0
2016-May-21 02:30N 40°57' E 028°54'0 0.0
2016-May-20 23:28N 40°57' E 028°54'0 0.1
2016-May-20 22:31N 40°57' E 028°54'0 0.0
2016-May-20 21:30N 40°57' E 028°54'0 0.0
2016-May-20 20:33N 40°57' E 028°54'4 0.9
2016-May-20 16:11N 40°53' E 028°54'7 9.7
2016-May-20 15:30N 40°48' E 028°48'144 8.3
2016-May-19 22:03N 39°52' E 025°53'4 8.0
2016-May-19 21:33N 39°49' E 025°50'71 9.6
2016-May-19 14:11N 38°45' E 025°09'610.2
2016-May-19 13:33N 38°40' E 025°06'1210.4
2016-May-19 12:24N 38°29' E 024°59'66 9.6
2016-May-19 05:34N 37°36' E 024°10'10 9.7
2016-May-19 04:32N 37°28' E 024°04'9 9.3
2016-May-19 03:34N 37°20' E 023°58'10 9.3
2016-May-19 02:26N 37°11' E 023°51'9 9.4
2016-May-19 01:28N 37°03' E 023°45'9 9.6
2016-May-19 00:33N 36°55' E 023°40'11 9.8
2016-May-18 23:23N 36°45' E 023°33'26 9.2
2016-May-18 20:33N 36°23' E 023°17'  
2016-May-13 19:28N 42°07' E 018°60'8 8.6
2016-May-13 18:34N 42°10' E 018°50'9 8.7
2016-May-13 17:33N 42°12' E 018°39'9 9.1
2016-May-13 16:34N 42°15' E 018°27'9 8.7
2016-May-13 15:30N 42°18' E 018°15'8 8.8
2016-May-13 14:33N 42°20' E 018°04'9 9.2
2016-May-13 13:33N 42°23' E 017°52'  
Track history (hours):
 
Tides and Currents Weather Stations Pressure Air Temp Water Temp Dewpoint Dewpoint Depression Visibility Wind Speed Wind Dir Waves Ship Positions

Celik 1

Last reported at 2016-May-21 12:10 UTC. Time now 2016-May-25 14:51 UTC.
Position N 40°57' E 028°58'.

Length 121 m; draft 6.3 m.

Type: Cargo ship. MMSI: 249114000.

Date/timePositionNaut miles runAvg speedWind from/ knotsBaromVisibWave heightAir tempDewpointWater temp
2016-May-21 12:10N 40°57' E 028°58'3 1.6
2016-May-21 10:06N 40°57' E 028°54'0 0.0
2016-May-21 03:29N 40°57' E 028°54'0 0.0
2016-May-21 02:30N 40°57' E 028°54'0 0.0
2016-May-20 23:28N 40°57' E 028°54'0 0.1
2016-May-20 22:31N 40°57' E 028°54'0 0.0
2016-May-20 21:30N 40°57' E 028°54'0 0.0
2016-May-20 20:33N 40°57' E 028°54'4 0.9
2016-May-20 16:11N 40°53' E 028°54'7 9.7
2016-May-20 15:30N 40°48' E 028°48'144 8.3
2016-May-19 22:03N 39°52' E 025°53'4 8.0
2016-May-19 21:33N 39°49' E 025°50'71 9.6
2016-May-19 14:11N 38°45' E 025°09'610.2
2016-May-19 13:33N 38°40' E 025°06'1210.4
2016-May-19 12:24N 38°29' E 024°59'66 9.6
2016-May-19 05:34N 37°36' E 024°10'10 9.7
2016-May-19 04:32N 37°28' E 024°04'9 9.3
2016-May-19 03:34N 37°20' E 023°58'10 9.3
2016-May-19 02:26N 37°11' E 023°51'9 9.4
2016-May-19 01:28N 37°03' E 023°45'9 9.6
2016-May-19 00:33N 36°55' E 023°40'11 9.8
2016-May-18 23:23N 36°45' E 023°33'26 9.2
2016-May-18 20:33N 36°23' E 023°17'  
2016-May-13 19:28N 42°07' E 018°60'8 8.6
2016-May-13 18:34N 42°10' E 018°50'9 8.7
2016-May-13 17:33N 42°12' E 018°39'9 9.1
2016-May-13 16:34N 42°15' E 018°27'9 8.7
2016-May-13 15:30N 42°18' E 018°15'8 8.8
2016-May-13 14:33N 42°20' E 018°04'9 9.2
2016-May-13 13:33N 42°23' E 017°52'  

Dump ship's entire track history